Time;durP1;ratioP1;P1;durP2;ratioP2;P2;SDS_P1;SDS_P2;PMS_P1;PMS_P2;Temp;Humidity;BMP_temperature;BMP_pressure;BME280_temperature;BME280_humidity;BME280_pressure;Samples;Min_cycle;Max_cycle;Signal;HPM_P1;HPM_P2
2022/08/09 00:00:41;;;;;;;5.05;2.60;;;22.40;92.20;;;;;;5008285;28;20237;-70
2022/08/09 00:03:08;;;;;;;3.58;3.13;;;22.40;92.20;;;;;;5009081;28;20737;-70
2022/08/09 00:05:35;;;;;;;3.80;3.50;;;22.30;92.30;;;;;;4993429;28;20210;-68
2022/08/09 00:08:01;;;;;;;4.13;3.13;;;22.20;92.50;;;;;;4989276;28;20209;-68
2022/08/09 00:10:30;;;;;;;3.50;3.20;;;22.20;92.70;;;;;;4989183;28;20669;-68
2022/08/09 00:12:57;;;;;;;4.40;3.17;;;22.20;92.80;;;;;;4989204;28;20277;-68
2022/08/09 00:15:25;;;;;;;3.28;2.85;;;22.30;92.80;;;;;;4988943;28;20209;-68
2022/08/09 00:17:52;;;;;;;3.30;2.90;;;22.30;92.70;;;;;;4990713;28;20210;-68
2022/08/09 00:20:18;;;;;;;3.45;2.83;;;22.40;92.80;;;;;;5008626;28;20216;-68
2022/08/09 00:22:45;;;;;;;4.50;3.65;;;22.40;92.80;;;;;;5008193;28;20708;-68
2022/08/09 00:25:12;;;;;;;4.13;2.92;;;22.50;92.80;;;;;;5008350;28;20228;-68
2022/08/09 00:27:39;;;;;;;4.18;2.88;;;22.50;92.80;;;;;;5008370;28;20244;-68
2022/08/09 00:30:06;;;;;;;3.60;3.33;;;22.50;92.70;;;;;;5008477;28;20216;-68
2022/08/09 00:32:34;;;;;;;4.18;3.00;;;22.50;92.60;;;;;;5007616;28;20220;-68
2022/08/09 00:35:02;;;;;;;6.70;3.20;;;22.50;92.70;;;;;;5008275;28;20220;-68
2022/08/09 00:37:29;;;;;;;3.67;3.00;;;22.50;92.70;;;;;;5008191;28;20210;-68
2022/08/09 00:39:56;;;;;;;3.47;3.28;;;22.50;92.70;;;;;;5008269;28;20245;-68
2022/08/09 00:42:23;;;;;;;4.00;3.05;;;22.50;92.80;;;;;;5007843;28;20205;-69
2022/08/09 00:44:49;;;;;;;6.53;3.03;;;22.50;92.80;;;;;;5008184;28;20213;-68
2022/08/09 00:47:16;;;;;;;3.97;3.22;;;22.50;92.80;;;;;;5008176;28;20232;-68
2022/08/09 00:49:44;;;;;;;3.15;2.90;;;22.50;92.90;;;;;;5008099;28;20206;-68
2022/08/09 00:52:11;;;;;;;5.18;2.90;;;22.50;93.00;;;;;;5008090;28;20201;-68
2022/08/09 00:54:38;;;;;;;5.80;2.97;;;22.50;93.00;;;;;;5008038;28;20206;-69
2022/08/09 00:57:05;;;;;;;5.53;3.05;;;22.50;93.00;;;;;;5007672;28;20210;-68
2022/08/09 00:59:32;;;;;;;4.28;3.20;;;22.50;93.00;;;;;;5004979;28;20244;-69
2022/08/09 01:02:01;;;;;;;3.20;2.90;;;22.50;93.00;;;;;;4988447;28;20210;-68
2022/08/09 01:04:40;;;;;;;3.47;3.17;;;22.50;93.00;;;;;;4987965;28;20686;-69
2022/08/09 01:07:15;;;;;;;5.82;2.88;;;22.50;93.00;;;;;;4988270;28;20237;-69
2022/08/09 01:09:48;;;;;;;3.40;3.15;;;22.50;93.10;;;;;;4988203;28;20209;-69
2022/08/09 01:12:21;;;;;;;3.20;2.97;;;22.50;93.00;;;;;;4988229;28;20202;-70
2022/08/09 01:14:54;;;;;;;2.80;2.60;;;22.40;93.00;;;;;;4998772;28;20205;-69
2022/08/09 01:17:25;;;;;;;3.47;2.78;;;22.40;93.20;;;;;;5007892;28;20221;-69
2022/08/09 01:19:58;;;;;;;3.28;2.80;;;22.40;93.20;;;;;;5010371;28;20216;-69
2022/08/09 01:22:41;;;;;;;4.00;2.70;;;22.30;93.30;;;;;;5011695;28;20591;-69
2022/08/09 01:25:33;;;;;;;3.60;3.00;;;22.30;93.30;;;;;;5011679;28;20201;-69
2022/08/09 01:28:02;;;;;;;3.20;2.90;;;22.40;93.40;;;;;;5010068;28;20218;-69
2022/08/09 01:30:31;;;;;;;3.53;3.10;;;22.40;93.40;;;;;;5011466;28;20201;-69
2022/08/09 01:33:00;;;;;;;3.95;3.15;;;22.40;93.50;;;;;;5011942;28;20205;-69
2022/08/09 01:35:30;;;;;;;5.13;3.03;;;22.40;93.50;;;;;;5011636;28;20213;-69
2022/08/09 01:38:01;;;;;;;3.42;3.13;;;22.30;93.60;;;;;;5011229;28;20205;-69
2022/08/09 01:40:29;;;;;;;3.90;3.55;;;22.30;93.60;;;;;;4991603;28;20206;-69
2022/08/09 01:42:58;;;;;;;4.13;3.45;;;22.40;93.70;;;;;;4991847;28;20217;-69
2022/08/09 01:45:27;;;;;;;3.50;3.20;;;22.30;93.60;;;;;;4991829;28;20206;-68
2022/08/09 01:47:59;;;;;;;4.22;3.58;;;22.30;93.70;;;;;;4994756;28;20313;-68
2022/08/09 01:50:27;;;;;;;3.80;3.00;;;22.30;93.80;;;;;;5010299;28;20202;-68
2022/08/09 01:52:56;;;;;;;5.10;3.20;;;22.30;93.90;;;;;;5011303;28;20644;-68
2022/08/09 01:58:28;;;;;;;3.55;3.17;;;22.30;94.00;;;;;;4986658;28;20232;-68
2022/08/09 02:00:59;;;;;;;3.40;3.10;;;22.30;94.10;;;;;;5011278;28;20217;-68
2022/08/09 02:03:30;;;;;;;5.18;3.53;;;22.30;94.10;;;;;;5000166;28;20657;-68
2022/08/09 02:05:58;;;;;;;6.00;3.50;;;22.30;94.10;;;;;;4991574;28;20213;-68
2022/08/09 02:08:26;;;;;;;3.58;3.30;;;22.30;94.10;;;;;;4991486;28;20234;-68
2022/08/09 02:10:56;;;;;;;3.25;3.05;;;22.30;94.10;;;;;;4991198;28;20231;-68
2022/08/09 02:13:25;;;;;;;4.22;3.03;;;22.30;94.10;;;;;;5000424;28;20559;-69
2022/08/09 02:15:54;;;;;;;3.47;3.20;;;22.30;94.20;;;;;;5011159;28;20201;-69
2022/08/09 02:18:25;;;;;;;3.40;2.80;;;22.30;94.20;;;;;;5011030;28;20221;-70
2022/08/09 02:20:57;;;;;;;3.80;3.40;;;22.30;94.30;;;;;;5010924;28;20232;-68
2022/08/09 02:23:29;;;;;;;5.50;3.03;;;22.30;94.50;;;;;;5010922;28;20559;-68
2022/08/09 02:25:59;;;;;;;4.03;3.13;;;22.20;94.40;;;;;;5010144;28;20431;-68
2022/08/09 02:28:31;;;;;;;3.28;2.65;;;22.30;94.50;;;;;;5010275;28;20720;-68
2022/08/09 02:31:04;;;;;;;3.47;3.20;;;22.30;94.50;;;;;;5007492;28;20202;-68
2022/08/09 02:33:37;;;;;;;3.53;3.33;;;22.30;94.60;;;;;;5008414;28;20209;-68
2022/08/09 02:36:10;;;;;;;5.05;3.63;;;22.20;94.60;;;;;;5008433;28;20232;-68
2022/08/09 02:38:45;;;;;;;4.55;3.25;;;22.20;94.70;;;;;;5007886;28;20205;-68
2022/08/09 02:41:17;;;;;;;3.38;3.10;;;22.20;94.70;;;;;;5008423;28;20200;-68
2022/08/09 02:43:47;;;;;;;3.88;3.58;;;22.10;94.70;;;;;;5008279;28;20202;-68
2022/08/09 02:46:17;;;;;;;3.88;3.40;;;22.10;94.70;;;;;;5008413;28;20229;-68
2022/08/09 02:48:48;;;;;;;3.63;3.33;;;22.10;94.80;;;;;;5000863;28;20217;-68
2022/08/09 02:51:18;;;;;;;3.58;3.38;;;22.10;94.90;;;;;;5008591;28;20622;-68
2022/08/09 02:53:48;;;;;;;3.35;3.10;;;22.10;95.00;;;;;;5008285;28;20217;-68
2022/08/09 02:56:18;;;;;;;4.22;3.22;;;22.10;95.00;;;;;;5007701;28;20215;-68
2022/08/09 02:58:46;;;;;;;4.10;3.28;;;22.10;95.00;;;;;;5006836;28;20201;-68
2022/08/09 03:01:15;;;;;;;3.70;3.47;;;22.10;95.40;;;;;;5007782;28;20194;-68
2022/08/09 03:03:45;;;;;;;6.22;3.40;;;22.10;95.10;;;;;;5007841;28;20210;-68
2022/08/09 03:06:14;;;;;;;3.50;3.30;;;22.10;95.20;;;;;;5008265;28;20567;-68
2022/08/09 03:08:43;;;;;;;3.78;3.47;;;22.00;95.20;;;;;;5002323;28;20417;-68
2022/08/09 03:11:13;;;;;;;3.72;3.42;;;22.00;95.30;;;;;;4989386;28;20232;-68
2022/08/09 03:13:42;;;;;;;3.42;3.22;;;22.00;95.40;;;;;;4989153;28;20217;-67
2022/08/09 03:16:09;;;;;;;4.68;3.65;;;22.00;95.50;;;;;;4989503;28;20212;-68
2022/08/09 03:18:37;;;;;;;4.20;3.70;;;22.00;95.60;;;;;;4997224;28;20225;-67
2022/08/09 03:21:09;;;;;;;4.10;3.67;;;22.00;95.70;;;;;;5009447;28;20225;-68
2022/08/09 03:23:36;;;;;;;6.55;3.28;;;21.90;95.70;;;;;;5009211;28;21033;-68
2022/08/09 03:26:07;;;;;;;4.22;3.08;;;21.90;95.70;;;;;;5008860;28;20688;-68
2022/08/09 03:28:35;;;;;;;3.78;3.20;;;21.90;95.80;;;;;;5009323;28;20316;-68
2022/08/09 03:31:06;;;;;;;3.42;3.13;;;21.80;95.70;;;;;;5009251;28;20216;-68
2022/08/09 03:33:34;;;;;;;3.33;3.03;;;21.80;95.70;;;;;;5009374;28;20228;-68
2022/08/09 03:36:04;;;;;;;6.30;3.53;;;21.80;95.70;;;;;;5009443;28;20201;-68
2022/08/09 03:38:32;;;;;;;4.03;3.47;;;21.80;95.70;;;;;;5009116;28;20296;-67
2022/08/09 03:40:59;;;;;;;4.13;3.58;;;21.80;95.60;;;;;;5008644;28;20214;-68
2022/08/09 03:43:28;;;;;;;4.50;3.30;;;21.80;95.60;;;;;;5008859;28;20233;-68
2022/08/09 03:45:54;;;;;;;8.18;3.53;;;21.80;95.60;;;;;;5009009;28;20814;-68
2022/08/09 03:48:23;;;;;;;5.80;3.45;;;21.80;95.60;;;;;;5008960;28;20233;-68
2022/08/09 03:50:51;;;;;;;3.47;3.17;;;21.80;95.60;;;;;;5009105;28;20211;-68
2022/08/09 03:53:20;;;;;;;4.05;3.60;;;21.80;95.60;;;;;;5009125;28;20212;-68
2022/08/09 03:55:49;;;;;;;5.15;3.55;;;21.80;95.60;;;;;;5008811;28;20205;-68
2022/08/09 03:58:17;;;;;;;6.13;3.40;;;21.80;95.70;;;;;;5008671;28;20680;-68
2022/08/09 04:00:45;;;;;;;3.35;3.05;;;21.80;95.70;;;;;;5008255;28;20287;-68
2022/08/09 04:03:12;;;;;;;5.68;3.50;;;21.80;95.70;;;;;;5008576;28;20703;-68
2022/08/09 04:05:39;;;;;;;3.60;3.35;;;21.80;95.70;;;;;;5008585;28;20230;-68
2022/08/09 04:08:06;;;;;;;3.90;3.40;;;21.70;95.70;;;;;;5008847;28;20236;-68
2022/08/09 04:10:33;;;;;;;4.18;3.97;;;21.80;95.80;;;;;;5008261;28;20304;-68
2022/08/09 04:13:08;;;;;;;3.70;3.40;;;21.80;95.90;;;;;;5008302;28;20657;-68
2022/08/09 04:15:35;;;;;;;5.70;3.25;;;21.70;96.00;;;;;;5008649;28;20189;-68
2022/08/09 04:18:02;;;;;;;7.40;3.95;;;21.70;96.10;;;;;;5008692;28;20224;-68
2022/08/09 04:20:29;;;;;;;4.93;3.72;;;21.70;96.20;;;;;;5008375;28;20249;-68
2022/08/09 04:22:57;;;;;;;4.25;3.70;;;21.70;96.20;;;;;;5008829;28;20585;-68
2022/08/09 04:25:24;;;;;;;7.32;3.67;;;21.70;96.20;;;;;;5008261;28;20233;-68
2022/08/09 04:27:51;;;;;;;4.03;3.67;;;21.70;96.30;;;;;;5008557;28;20886;-68
2022/08/09 04:30:21;;;;;;;12.80;3.92;;;21.70;96.30;;;;;;5008778;28;20220;-68
2022/08/09 04:32:48;;;;;;;5.88;3.70;;;21.70;96.30;;;;;;5008727;28;20201;-68
2022/08/09 04:35:15;;;;;;;4.70;4.10;;;21.70;96.40;;;;;;5008487;28;20216;-68
2022/08/09 04:37:42;;;;;;;4.55;3.63;;;21.60;96.30;;;;;;5008469;28;20209;-68
2022/08/09 04:40:10;;;;;;;6.10;3.53;;;21.60;96.50;;;;;;5008595;28;20283;-68
2022/08/09 04:42:37;;;;;;;4.15;3.53;;;21.60;96.60;;;;;;5007865;28;20684;-68
2022/08/09 04:45:05;;;;;;;3.80;3.40;;;21.60;96.60;;;;;;5007987;28;20680;-68
2022/08/09 04:47:33;;;;;;;11.27;4.03;;;21.60;96.60;;;;;;5007959;28;20237;-68
2022/08/09 04:50:00;;;;;;;8.15;3.70;;;21.60;96.70;;;;;;5008224;28;20213;-68
2022/08/09 04:52:28;;;;;;;14.38;4.55;;;21.60;96.60;;;;;;5007886;28;20202;-68
2022/08/09 04:54:55;;;;;;;5.13;4.30;;;21.60;96.60;;;;;;5007156;28;20209;-68
2022/08/09 04:57:22;;;;;;;4.95;3.60;;;21.60;97.00;;;;;;5007509;28;20247;-68
2022/08/09 04:59:48;;;;;;;6.32;3.88;;;21.60;96.70;;;;;;5007970;28;20252;-68
2022/08/09 05:02:15;;;;;;;4.05;3.53;;;21.60;96.60;;;;;;5007834;28;20208;-68
2022/08/09 05:04:43;;;;;;;5.20;3.85;;;21.60;96.50;;;;;;5007734;28;20754;-68
2022/08/09 05:07:10;;;;;;;4.20;3.88;;;21.60;96.50;;;;;;5007328;28;20229;-67
2022/08/09 05:09:38;;;;;;;4.20;3.78;;;21.60;96.60;;;;;;5001083;28;20208;-68
2022/08/09 05:12:05;;;;;;;4.20;3.90;;;21.60;96.70;;;;;;5007650;28;20216;-68
2022/08/09 05:14:32;;;;;;;4.82;3.85;;;21.60;96.80;;;;;;5007694;28;20213;-68
2022/08/09 05:16:59;;;;;;;6.10;4.25;;;21.60;96.90;;;;;;5007790;28;20209;-68
2022/08/09 05:19:28;;;;;;;3.97;3.67;;;21.60;96.90;;;;;;5007745;28;20209;-67
2022/08/09 05:21:56;;;;;;;6.38;4.15;;;21.60;96.90;;;;;;5007681;28;20275;-67
2022/08/09 05:24:24;;;;;;;5.22;4.10;;;21.60;96.90;;;;;;5007790;28;20209;-67
2022/08/09 05:26:51;;;;;;;5.80;4.35;;;21.60;96.90;;;;;;5007631;28;20205;-67
2022/08/09 05:29:19;;;;;;;4.65;4.28;;;21.60;97.00;;;;;;5007289;28;20720;-67
2022/08/09 05:31:46;;;;;;;4.32;3.85;;;21.60;97.00;;;;;;5007279;28;20209;-67
2022/08/09 05:34:14;;;;;;;14.85;4.88;;;21.60;97.00;;;;;;5007336;28;20221;-67
2022/08/09 05:36:41;;;;;;;8.30;4.43;;;21.50;97.00;;;;;;5007524;28;20209;-67
2022/08/09 05:39:09;;;;;;;4.10;3.80;;;21.60;97.20;;;;;;5007597;28;20220;-67
2022/08/09 05:41:36;;;;;;;4.65;4.25;;;21.60;97.10;;;;;;5006984;28;20227;-69
2022/08/09 05:44:03;;;;;;;13.93;4.70;;;21.60;97.20;;;;;;5007102;28;20252;-68
2022/08/09 05:46:30;;;;;;;13.27;4.72;;;21.50;97.30;;;;;;5007029;28;20209;-68
2022/08/09 05:48:58;;;;;;;3.83;3.63;;;21.60;97.30;;;;;;5006936;28;20229;-68
2022/08/09 05:51:24;;;;;;;6.20;3.97;;;21.60;97.30;;;;;;5006504;28;20217;-68
2022/08/09 05:53:51;;;;;;;5.40;3.72;;;21.60;97.20;;;;;;5007028;28;20201;-68
2022/08/09 05:56:20;;;;;;;14.65;4.32;;;21.70;97.30;;;;;;5006691;28;20214;-68
2022/08/09 05:58:47;;;;;;;4.63;4.20;;;21.70;97.30;;;;;;5006484;28;21015;-69
2022/08/09 06:01:13;;;;;;;4.30;3.90;;;21.60;97.30;;;;;;5006767;28;20298;-68
2022/08/09 06:03:40;;;;;;;6.13;3.90;;;21.70;97.50;;;;;;5006848;28;20967;-68
2022/08/09 06:06:07;;;;;;;7.38;4.10;;;21.70;97.60;;;;;;5009950;28;20212;-68
2022/08/09 06:08:34;;;;;;;4.57;4.10;;;21.80;97.50;;;;;;5010119;28;20241;-68
2022/08/09 06:11:01;;;;;;;7.95;4.38;;;21.80;97.50;;;;;;5010300;28;20578;-68
2022/08/09 06:13:33;;;;;;;11.77;4.20;;;21.70;97.00;;;;;;5010222;28;20657;-68
2022/08/09 06:16:01;;;;;;;8.38;4.30;;;21.60;96.80;;;;;;5010482;28;20227;-68
2022/08/09 06:18:28;;;;;;;5.13;4.05;;;21.60;96.90;;;;;;5010118;28;20241;-68
2022/08/09 06:20:56;;;;;;;4.40;3.83;;;21.60;96.80;;;;;;5010016;28;20788;-68
2022/08/09 06:23:23;;;;;;;5.53;3.90;;;21.60;96.70;;;;;;5010172;28;20846;-68
2022/08/09 06:25:50;;;;;;;4.90;3.95;;;21.60;96.80;;;;;;5009859;28;20240;-68
2022/08/09 06:28:17;;;;;;;6.15;4.10;;;21.60;96.70;;;;;;5010515;28;20228;-68
2022/08/09 06:30:45;;;;;;;4.32;3.92;;;21.60;96.70;;;;;;5009862;28;20739;-68
2022/08/09 06:33:12;;;;;;;5.68;4.35;;;21.70;96.70;;;;;;5010282;28;20212;-68
2022/08/09 06:35:39;;;;;;;7.60;4.13;;;21.70;96.50;;;;;;5010150;28;20215;-68
2022/08/09 06:38:07;;;;;;;13.73;4.53;;;21.80;96.40;;;;;;5009862;28;20691;-68
2022/08/09 06:40:34;;;;;;;4.70;4.20;;;21.80;96.20;;;;;;5009893;28;20201;-68
2022/08/09 06:43:01;;;;;;;10.52;4.38;;;21.90;96.20;;;;;;5010255;28;20212;-68
2022/08/09 06:45:28;;;;;;;5.20;3.50;;;21.80;96.10;;;;;;5010229;28;20212;-68
2022/08/09 06:47:56;;;;;;;6.55;4.35;;;21.90;96.10;;;;;;5010249;28;20236;-68
2022/08/09 06:50:26;;;;;;;11.02;4.22;;;21.80;96.10;;;;;;5009769;28;20690;-68
2022/08/09 06:52:53;;;;;;;3.90;3.38;;;21.90;96.20;;;;;;5010204;28;20201;-68
2022/08/09 06:55:22;;;;;;;6.57;4.25;;;21.90;96.10;;;;;;5009934;28;20215;-68
2022/08/09 06:57:50;;;;;;;3.72;3.42;;;22.00;96.10;;;;;;5010075;28;20330;-68
2022/08/09 07:00:17;;;;;;;71.82;9.68;;;22.10;96.00;;;;;;5009518;28;20287;-68
2022/08/09 07:02:44;;;;;;;5.53;3.58;;;22.20;95.90;;;;;;5009735;28;20216;-68
2022/08/09 07:05:13;;;;;;;6.72;3.72;;;22.30;95.80;;;;;;5009677;28;20788;-68
2022/08/09 07:07:40;;;;;;;7.38;3.83;;;22.40;95.60;;;;;;5009183;28;20201;-68
2022/08/09 07:10:07;;;;;;;4.93;3.28;;;22.40;95.30;;;;;;5009805;28;20571;-68
2022/08/09 07:12:34;;;;;;;4.57;3.65;;;22.50;95.30;;;;;;5009240;28;20206;-68
2022/08/09 07:15:02;;;;;;;4.07;3.65;;;22.60;95.30;;;;;;5009801;28;20212;-68
2022/08/09 07:17:28;;;;;;;6.68;3.47;;;22.60;95.10;;;;;;5008716;28;20214;-68
2022/08/09 07:19:55;;;;;;;5.95;3.58;;;22.60;95.00;;;;;;5009595;28;20224;-68
2022/08/09 07:22:24;;;;;;;3.60;3.30;;;22.70;94.90;;;;;;5009539;28;20313;-68
2022/08/09 07:24:51;;;;;;;9.68;3.50;;;22.70;94.90;;;;;;5009631;28;20205;-68
2022/08/09 07:27:19;;;;;;;18.83;3.55;;;22.70;94.80;;;;;;5009041;28;20206;-68
2022/08/09 07:29:46;;;;;;;28.70;4.93;;;22.80;94.70;;;;;;5008969;28;20240;-68
2022/08/09 07:32:13;;;;;;;97.10;11.57;;;22.80;94.60;;;;;;5009382;28;20304;-68
2022/08/09 07:34:39;;;;;;;12.85;3.75;;;22.80;94.10;;;;;;5009324;28;20205;-68
2022/08/09 07:37:06;;;;;;;7.28;3.55;;;22.80;94.10;;;;;;5009199;28;20668;-68
2022/08/09 07:39:34;;;;;;;4.20;3.05;;;22.90;94.10;;;;;;5009302;28;20209;-68
2022/08/09 07:42:02;;;;;;;68.57;7.85;;;22.90;93.90;;;;;;5008942;28;20210;-68
2022/08/09 07:44:28;;;;;;;7.50;3.40;;;22.80;93.70;;;;;;5008855;28;20665;-68
2022/08/09 07:46:55;;;;;;;8.98;3.00;;;22.90;93.80;;;;;;5008843;28;20220;-68
2022/08/09 07:49:22;;;;;;;9.73;3.67;;;22.90;93.80;;;;;;5009033;28;20332;-68
2022/08/09 07:51:49;;;;;;;3.70;3.10;;;23.00;93.90;;;;;;5008761;28;20847;-68
2022/08/09 07:54:16;;;;;;;7.53;3.00;;;23.00;93.50;;;;;;5008916;28;20296;-69
2022/08/09 07:56:44;;;;;;;5.18;2.70;;;23.10;93.30;;;;;;5008565;28;20244;-68
2022/08/09 07:59:11;;;;;;;5.78;3.13;;;23.10;93.30;;;;;;5008580;28;20237;-68
2022/08/09 08:01:38;;;;;;;3.17;2.80;;;23.20;93.30;;;;;;5008741;28;20197;-68
2022/08/09 08:04:05;;;;;;;3.65;2.83;;;23.30;92.90;;;;;;5008578;28;20210;-69
2022/08/09 08:06:32;;;;;;;6.43;3.33;;;23.30;92.30;;;;;;5008763;28;20210;-68
2022/08/09 08:08:59;;;;;;;6.68;3.03;;;23.30;92.60;;;;;;5008677;28;20331;-68
2022/08/09 08:11:25;;;;;;;4.13;2.75;;;23.30;92.20;;;;;;5008329;28;20213;-68
2022/08/09 08:13:54;;;;;;;5.97;2.95;;;23.30;91.70;;;;;;5008347;28;20213;-68
2022/08/09 08:16:20;;;;;;;6.80;2.72;;;23.30;91.70;;;;;;5008611;28;20206;-68
2022/08/09 08:18:47;;;;;;;3.00;2.63;;;23.30;91.70;;;;;;5008474;28;20637;-69
2022/08/09 08:21:14;;;;;;;8.98;2.47;;;23.40;91.80;;;;;;5008140;28;20237;-70
2022/08/09 08:23:41;;;;;;;2.40;2.17;;;23.40;91.80;;;;;;5008400;28;20243;-68
2022/08/09 08:26:08;;;;;;;2.80;2.60;;;23.50;91.60;;;;;;5007899;28;20976;-68
2022/08/09 08:28:35;;;;;;;2.63;2.47;;;23.60;91.40;;;;;;5008135;28;20236;-68
2022/08/09 08:31:06;;;;;;;3.28;2.42;;;23.60;91.30;;;;;;5008402;28;20201;-68
2022/08/09 08:33:33;;;;;;;4.90;2.88;;;23.70;91.50;;;;;;5008306;28;20204;-68
2022/08/09 08:36:00;;;;;;;3.97;2.70;;;23.70;91.50;;;;;;5008306;28;20209;-68
2022/08/09 08:38:27;;;;;;;3.15;2.53;;;23.70;91.20;;;;;;5007971;28;20213;-68
2022/08/09 08:40:55;;;;;;;2.85;2.47;;;23.80;91.30;;;;;;5007815;28;20673;-68
2022/08/09 08:43:23;;;;;;;36.47;6.00;;;23.90;90.70;;;;;;5007935;28;20665;-68
2022/08/09 08:45:51;;;;;;;9.07;2.85;;;23.90;90.50;;;;;;5008494;28;20637;-68
2022/08/09 08:48:20;;;;;;;2.95;2.20;;;24.00;90.70;;;;;;5007926;28;20696;-68
2022/08/09 08:50:49;;;;;;;4.85;2.58;;;24.00;90.70;;;;;;5007951;28;20209;-69
2022/08/09 08:53:16;;;;;;;7.53;2.72;;;24.10;91.00;;;;;;5007720;28;20664;-68
2022/08/09 08:55:43;;;;;;;4.50;2.63;;;24.10;90.90;;;;;;5007518;28;20210;-68
2022/08/09 08:58:10;;;;;;;3.60;2.65;;;24.20;90.30;;;;;;5007860;28;20210;-68
2022/08/09 09:00:38;;;;;;;4.47;2.35;;;24.20;90.00;;;;;;5007513;28;20247;-68
2022/08/09 09:03:05;;;;;;;6.45;2.83;;;24.30;90.10;;;;;;5008011;28;20221;-68
2022/08/09 09:05:34;;;;;;;6.80;2.60;;;24.30;90.20;;;;;;5007937;28;20216;-68
2022/08/09 09:08:03;;;;;;;2.90;2.40;;;24.40;89.50;;;;;;5008160;28;20216;-68
2022/08/09 09:10:31;;;;;;;4.85;2.40;;;24.40;89.60;;;;;;5007329;28;20233;-69
2022/08/09 09:12:59;;;;;;;5.93;2.60;;;24.50;89.60;;;;;;5007811;28;20197;-68
2022/08/09 09:15:26;;;;;;;4.80;2.35;;;24.50;89.60;;;;;;5007405;28;20668;-68
2022/08/09 09:17:53;;;;;;;3.75;2.45;;;24.60;89.10;;;;;;5007811;28;20211;-68
2022/08/09 09:20:20;;;;;;;6.88;2.50;;;24.70;88.80;;;;;;5007756;28;20217;-69
2022/08/09 09:22:54;;;;;;;7.70;2.50;;;24.70;88.60;;;;;;5007281;28;20609;-68
2022/08/09 09:25:38;;;;;;;2.92;2.25;;;24.80;89.00;;;;;;5007699;28;20267;-68
2022/08/09 09:28:06;;;;;;;7.13;2.75;;;24.90;89.30;;;;;;5007675;28;20388;-68
2022/08/09 09:30:34;;;;;;;2.60;2.40;;;24.90;87.90;;;;;;5007574;28;20303;-68
2022/08/09 09:33:02;;;;;;;5.47;2.50;;;25.00;87.50;;;;;;5007618;28;20209;-69
2022/08/09 09:35:29;;;;;;;28.35;4.05;;;25.00;86.90;;;;;;5007579;28;20213;-68
2022/08/09 09:37:58;;;;;;;3.08;2.50;;;25.10;87.80;;;;;;5007539;28;20581;-69
2022/08/09 09:40:43;;;;;;;5.00;2.15;;;25.10;87.90;;;;;;5009325;28;20248;-68
2022/08/09 09:43:16;;;;;;;3.67;2.55;;;25.20;87.00;;;;;;5011310;28;20206;-68
2022/08/09 09:45:52;;;;;;;2.55;2.35;;;25.20;87.30;;;;;;5011163;28;20708;-68
2022/08/09 09:48:20;;;;;;;3.28;2.60;;;25.30;86.80;;;;;;5011583;28;20215;-69
2022/08/09 09:50:50;;;;;;;3.33;2.20;;;25.40;86.10;;;;;;5011083;28;20320;-68
2022/08/09 09:53:20;;;;;;;4.18;2.65;;;25.40;85.60;;;;;;5010933;28;20220;-68
2022/08/09 09:55:58;;;;;;;45.50;7.68;;;25.50;85.60;;;;;;5011107;28;20194;-68
2022/08/09 09:58:26;;;;;;;114.07;11.80;;;25.50;85.20;;;;;;5010740;28;20288;-68
2022/08/09 10:00:56;;;;;;;11.07;2.90;;;25.60;84.60;;;;;;4972010;28;20210;-68
2022/08/09 10:03:43;;;;;;;2.70;2.10;;;25.60;85.00;;;;;;4972163;28;20203;-68
2022/08/09 10:06:10;;;;;;;5.43;2.45;;;25.70;84.00;;;;;;4971946;28;20205;-68
2022/08/09 10:08:38;;;;;;;13.80;3.05;;;25.80;84.60;;;;;;4971551;28;20213;-69
2022/08/09 10:11:19;;;;;;;7.10;2.20;;;25.90;84.50;;;;;;4971378;28;20203;-68
2022/08/09 10:13:47;;;;;;;4.95;2.60;;;26.00;84.40;;;;;;4971191;28;20297;-69
2022/08/09 10:16:14;;;;;;;56.35;6.72;;;26.00;83.10;;;;;;4971946;28;20211;-69
2022/08/09 10:18:50;;;;;;;1.92;1.83;;;26.10;83.70;;;;;;4971661;28;20297;-69
2022/08/09 10:21:17;;;;;;;3.53;2.47;;;26.10;82.00;;;;;;4971349;28;20285;-68
2022/08/09 10:23:47;;;;;;;2.67;2.47;;;26.10;82.10;;;;;;4971903;28;20206;-69
2022/08/09 10:26:15;;;;;;;2.53;2.20;;;26.10;82.30;;;;;;4971662;28;20203;-68
2022/08/09 10:28:43;;;;;;;2.80;2.60;;;26.20;82.70;;;;;;4971578;28;20210;-69
2022/08/09 10:31:12;;;;;;;2.67;2.45;;;26.30;83.20;;;;;;4972107;28;20225;-68
2022/08/09 10:33:39;;;;;;;2.75;2.30;;;26.30;83.00;;;;;;4971589;28;20203;-69
2022/08/09 10:36:09;;;;;;;2.58;2.38;;;26.40;82.60;;;;;;4971737;28;20561;-68
2022/08/09 10:38:35;;;;;;;2.45;2.30;;;26.50;82.50;;;;;;4971649;28;20290;-68
2022/08/09 10:41:12;;;;;;;3.60;2.58;;;26.60;81.60;;;;;;4971156;28;20218;-69
2022/08/09 10:43:43;;;;;;;6.07;2.55;;;26.70;82.30;;;;;;4971077;28;20740;-69
2022/08/09 10:46:33;;;;;;;3.03;2.67;;;26.70;80.40;;;;;;4971596;28;20203;-69
2022/08/09 10:49:08;;;;;;;2.38;2.10;;;26.80;81.50;;;;;;4971551;28;20214;-68
2022/08/09 10:51:48;;;;;;;3.60;2.40;;;27.00;81.30;;;;;;4970153;28;20195;-69
2022/08/09 10:54:15;;;;;;;3.00;2.40;;;27.10;79.60;;;;;;4971393;28;20195;-69
2022/08/09 10:56:43;;;;;;;2.38;2.17;;;27.20;81.00;;;;;;4970790;28;20648;-69
2022/08/09 10:59:29;;;;;;;2.35;2.20;;;27.30;81.30;;;;;;4982429;28;20249;-69
2022/08/09 11:01:56;;;;;;;4.07;2.30;;;27.50;80.30;;;;;;5010192;28;20308;-68
2022/08/09 11:04:24;;;;;;;2.22;2.13;;;27.60;80.50;;;;;;5009952;28;20213;-69
2022/08/09 11:07:29;;;;;;;2.92;2.47;;;27.70;78.70;;;;;;5010027;28;20304;-68
2022/08/09 11:09:56;;;;;;;2.50;2.30;;;27.80;79.40;;;;;;5009733;28;20319;-69
2022/08/09 11:12:25;;;;;;;2.70;2.50;;;28.00;78.90;;;;;;5009594;28;20254;-69
2022/08/09 11:14:56;;;;;;;2.38;2.13;;;28.10;77.80;;;;;;5009671;28;20210;-68
2022/08/09 11:17:51;;;;;;;2.20;2.10;;;28.20;78.30;;;;;;5009659;28;20198;-69
2022/08/09 11:20:21;;;;;;;2.80;2.60;;;28.40;77.80;;;;;;4990068;28;20289;-69
2022/08/09 11:23:00;;;;;;;3.53;2.38;;;28.60;77.40;;;;;;4990293;28;20277;-69
2022/08/09 11:25:36;;;;;;;2.88;2.47;;;28.70;76.50;;;;;;4989826;28;20217;-69
2022/08/09 11:28:34;;;;;;;3.00;2.50;;;28.70;75.10;;;;;;4989929;28;20210;-69
2022/08/09 11:31:06;;;;;;;3.67;2.35;;;28.70;75.30;;;;;;4989788;28;20265;-68
2022/08/09 11:33:41;;;;;;;2.30;2.20;;;28.60;75.80;;;;;;4989913;28;20205;-68
2022/08/09 11:36:09;;;;;;;25.17;4.18;;;28.70;75.80;;;;;;4990078;28;20844;-69
2022/08/09 11:38:36;;;;;;;2.72;2.35;;;28.80;75.70;;;;;;4989840;28;20218;-69
2022/08/09 11:41:28;;;;;;;2.63;2.35;;;29.00;75.60;;;;;;4989706;28;20310;-69
2022/08/09 11:43:56;;;;;;;8.07;2.80;;;29.00;75.30;;;;;;4989426;28;20674;-69
2022/08/09 11:46:24;;;;;;;2.70;2.50;;;29.10;75.00;;;;;;4989737;28;20214;-69
2022/08/09 11:48:52;;;;;;;2.30;2.20;;;29.20;74.70;;;;;;4999157;28;20213;-69
2022/08/09 11:51:20;;;;;;;4.72;2.20;;;29.30;74.30;;;;;;5009040;28;20278;-68
2022/08/09 11:53:48;;;;;;;4.18;2.67;;;29.30;74.70;;;;;;5009025;28;20205;-69
2022/08/09 11:56:27;;;;;;;3.28;2.60;;;29.20;75.10;;;;;;5008748;28;20205;-69
2022/08/09 11:58:57;;;;;;;2.80;2.50;;;29.20;75.70;;;;;;5008343;28;20237;-68
2022/08/09 12:01:36;;;;;;;3.13;2.45;;;29.20;74.20;;;;;;5008930;28;20288;-68
2022/08/09 12:04:05;;;;;;;5.03;2.40;;;29.20;74.10;;;;;;5008708;28;20201;-69
2022/08/09 12:06:34;;;;;;;3.10;2.40;;;29.40;74.60;;;;;;5008812;28;20231;-69
2022/08/09 12:09:03;;;;;;;5.65;2.42;;;29.60;75.10;;;;;;5008726;28;20213;-69
2022/08/09 12:11:30;;;;;;;5.05;2.10;;;29.90;74.90;;;;;;5008605;28;20240;-69
2022/08/09 12:14:00;;;;;;;6.40;2.42;;;30.00;73.30;;;;;;5008798;28;20205;-70
2022/08/09 12:16:31;;;;;;;3.60;2.33;;;30.10;74.20;;;;;;5008859;28;20731;-69
2022/08/09 12:19:01;;;;;;;3.08;2.42;;;30.30;72.70;;;;;;5008787;28;20201;-69
2022/08/09 12:21:31;;;;;;;2.90;2.63;;;30.30;73.00;;;;;;5008509;28;20260;-69
2022/08/09 12:24:01;;;;;;;5.05;2.40;;;30.50;72.10;;;;;;5008738;28;20209;-69
2022/08/09 12:26:42;;;;;;;5.38;2.63;;;30.50;71.50;;;;;;5008006;28;20712;-69
2022/08/09 12:29:15;;;;;;;2.40;2.13;;;30.70;72.00;;;;;;5008541;28;20300;-70
2022/08/09 12:31:42;;;;;;;3.38;2.13;;;30.70;71.30;;;;;;5008512;28;20228;-70
2022/08/09 12:34:09;;;;;;;4.47;2.30;;;30.90;70.90;;;;;;5008489;28;20205;-70
2022/08/09 12:36:50;;;;;;;3.58;2.40;;;30.90;70.90;;;;;;5008135;28;20208;-69
2022/08/09 12:39:17;;;;;;;2.88;2.10;;;30.90;70.70;;;;;;5008779;28;20343;-69
2022/08/09 12:41:43;;;;;;;5.30;2.50;;;30.80;70.20;;;;;;5007922;28;20240;-69
2022/08/09 12:44:12;;;;;;;31.23;4.65;;;30.60;69.90;;;;;;5007701;28;20679;-69
2022/08/09 12:46:40;;;;;;;10.27;2.65;;;30.40;70.30;;;;;;5002513;28;20221;-69
2022/08/09 12:49:07;;;;;;;5.25;2.30;;;30.20;70.80;;;;;;4994006;28;20301;-69
2022/08/09 12:51:35;;;;;;;31.95;4.53;;;30.00;71.60;;;;;;5003892;28;20323;-69
2022/08/09 12:54:04;;;;;;;109.82;10.55;;;29.80;75.60;;;;;;5007459;28;20228;-69
2022/08/09 12:56:31;;;;;;;3.60;2.13;;;29.80;74.30;;;;;;4995742;28;20210;-68
2022/08/09 12:59:07;;;;;;;4.53;2.78;;;30.00;71.40;;;;;;4986075;28;20238;-68